Latest Coastal Weather Observations for Gunn Point

IDD60701

Issued at 7:31 pm CST Sunday 21 December 2014 (issued every 10 minutes, with the page automatically refreshed every 10 minutes)

About coastal observations | Map of coastal stations | Coastal observations for NT | Marine services | Other Formats
Station Details ID: 014023 Name: GUNN POINT Lat: -12.25 Lon: 131.04 Height: 25.0 m
Data from the previous 72 hours. | See also: Recent months for locations in Northern Territory
Date/Time
CST
Temp

°C
Wind Pressure Rain
since 9am
mm
Weather Cloud Vis
km
Sea
Height
m
Swell
Dir
 
Speed
knots
Gust
knots
hPa Trend Height
m
Period
s
Dir
21/07:30pm 29.5 CALM 0 1 1005.8 - 0.0 - - - - - - -
21/07:00pm 30.6 WNW 1 3 1005.5 - 0.0 - - - - - - -
21/06:30pm 31.3 W 2 4 1004.7 - 0.0 - - - - - - -
21/06:00pm 31.9 WNW 3 5 1004.5 - 0.0 - - - - - - -
21/05:30pm 32.1 W 3 5 1004.5 - 0.0 - - - - - - -
21/05:00pm 31.8 W 4 6 1004.5 - 0.0 - - - - - - -
21/04:30pm 32.3 WSW 4 8 1004.7 - 0.0 - - - - - - -
21/04:00pm 33.4 WSW 5 7 1004.8 - 0.0 - - - - - - -
21/03:30pm 32.8 W 4 7 1005.2 - 0.0 - - - - - - -
21/03:00pm 31.9 W 5 8 1005.8 - 0.0 - - - - - - -
21/02:30pm 33.2 WSW 2 5 1005.9 - 0.0 - - - - - - -
21/02:00pm 32.9 WSW 3 6 1006.4 - 0.0 - - - - - - -
21/01:30pm 33.5 ESE 3 5 1007.0 - 0.0 - - - - - - -
21/01:00pm 32.6 ENE 3 7 1007.7 - 0.0 - - - - - - -
21/12:30pm 32.7 NE 4 8 1008.1 - 0.0 - - - - - - -
21/12:00pm 33.7 N 2 6 1008.3 - 0.0 - - - - - - -
21/11:30am 33.6 E 2 6 1008.9 - 0.0 - - - - - - -
21/11:00am 31.9 ESE 4 10 1009.4 - 0.0 - - - - - - -
21/10:30am 31.9 SE 3 5 1009.9 - 0.0 - - - - - - -
21/10:00am 31.6 ESE 2 5 1009.9 - 0.0 - - - - - - -
21/09:30am 30.3 SSE 5 8 1009.9 - 0.0 - - - - - - -
21/09:00am 30.5 SE 4 7 1009.9 - 0.0 - - - - - - -
21/08:30am 29.9 SE 2 4 1009.5 - 0.0 - - - - - - -
21/08:00am 28.6 SE 1 3 1009.0 - 0.0 - - - - - - -
21/07:30am 27.5 E 2 3 1008.6 - 0.0 - - - - - - -
21/07:00am 26.7 CALM 0 0 1008.0 - 0.0 - - - - - - -
21/06:30am 26.5 CALM 0 1 1007.7 - 0.0 - - - - - - -
21/06:00am 26.8 CALM 0 2 1007.4 - 0.0 - - - - - - -
21/05:30am 27.3 WSW 1 3 1007.3 - 0.0 - - - - - - -
21/05:00am 28.5 CALM 0 1 1006.9 - 0.0 - - - - - - -
21/04:30am 29.3 WNW 3 5 1006.5 - 0.0 - - - - - - -
21/04:00am 29.5 WNW 3 6 1006.6 - 0.0 - - - - - - -
21/03:30am 29.7 W 2 5 1006.4 - 0.0 - - - - - - -
21/03:00am 29.0 W 2 5 1006.5 - 0.0 - - - - - - -
21/02:30am 28.8 WSW 1 3 1006.7 - 0.0 - - - - - - -
21/02:00am 28.5 WSW 2 5 1007.0 - 0.0 - - - - - - -
21/01:30am 28.5 WSW 5 9 1007.5 - 0.0 - - - - - - -
21/01:00am 29.9 WNW 4 9 1008.0 - 0.0 - - - - - - -
21/12:30am 29.9 WNW 3 6 1008.3 - 0.0 - - - - - - -
21/12:00am 29.8 WNW 3 7 1008.5 - 0.0 - - - - - - -
 
Date/Time
CST
Temp

°C
Wind Pressure Rain
since 9am
mm
Weather Cloud Vis
km
Sea
Height
m
Swell
Dir
 
Speed
knots
Gust
knots
hPa Trend Height
m
Period
s
Dir
20/11:30pm 29.0 NW 1 4 1008.7 - 0.0 - - - - - - -
20/11:00pm 28.8 NNW 2 4 1008.3 - 0.0 - - - - - - -
20/10:30pm 28.6 NW 1 2 1008.3 - 0.0 - - - - - - -
20/10:00pm 27.9 N 2 4 1008.0 - 0.0 - - - - - - -
20/09:30pm 27.1 CALM 0 0 1007.6 - 0.0 - - - - - - -
20/09:00pm 27.5 NNE 1 2 1007.3 - 0.0 - - - - - - -
20/08:30pm 27.8 CALM 0 1 1006.7 - 0.0 - - - - - - -
20/08:00pm 28.4 CALM 0 0 1006.6 - 0.0 - - - - - - -
20/07:30pm 30.5 NNE 1 3 1006.0 - 0.0 - - - - - - -
20/07:00pm 31.5 NNE 1 4 1005.4 - 0.0 - - - - - - -
20/06:30pm 32.5 NNE 2 4 1005.3 - 0.0 - - - - - - -
20/06:00pm 33.0 N 2 4 1004.9 - 0.0 - - - - - - -
20/05:30pm 34.1 NW 3 5 1004.8 - 0.0 - - - - - - -
20/05:00pm 34.0 NW 4 7 1004.7 - 0.0 - - - - - - -
20/04:30pm 34.3 WNW 4 7 1004.7 - 0.0 - - - - - - -
20/04:00pm 33.8 W 5 8 1004.8 - 0.0 - - - - - - -
20/03:30pm 34.8 WNW 6 9 1005.1 - 0.0 - - - - - - -
20/03:00pm 34.1 W 6 9 1005.7 - 0.0 - - - - - - -
20/02:30pm 33.8 W 6 10 1006.1 - 0.0 - - - - - - -
20/02:00pm 34.1 W 5 8 1006.5 - 0.0 - - - - - - -
20/01:30pm 33.5 WSW 5 8 1007.0 - 0.0 - - - - - - -
20/01:00pm 32.9 W 3 6 1007.7 - 0.0 - - - - - - -
20/12:30pm 32.6 WNW 4 7 1008.1 - 0.0 - - - - - - -
20/12:00pm 34.0 WNW 3 6 1008.5 - 0.0 - - - - - - -
20/11:30am 32.7 WNW 3 6 1009.0 - 0.0 - - - - - - -
20/11:00am 32.7 SSE 1 4 1009.3 - 0.0 - - - - - - -
20/10:30am 32.8 W 1 5 1009.6 - 0.0 - - - - - - -
20/10:00am 31.7 SE 3 6 1009.8 - 0.0 - - - - - - -
20/09:30am 29.8 S 4 6 1010.0 - 0.0 - - - - - - -
20/09:00am 28.0 SSW 3 5 1010.2 - 12.2 - - - - - - -
20/08:30am 27.6 SSW 2 4 1010.1 - 12.2 - - - - - - -
20/08:00am 27.2 SSW 1 3 1010.0 - 12.2 - - - - - - -
20/07:30am 26.8 S 1 3 1009.8 - 12.2 - - - - - - -
20/07:00am 26.5 SW 4 8 1009.8 - 12.2 - - - - - - -
20/06:30am 26.3 SSW 4 8 1009.4 - 12.2 - - - - - - -
20/06:00am 27.3 SSW 7 13 1009.3 - 12.2 - - - - - - -
20/05:30am 29.0 NW 1 3 1008.4 - 12.2 - - - - - - -
20/05:00am 29.1 N 2 3 1008.0 - 12.2 - - - - - - -
20/04:30am 29.4 NW 2 5 1007.6 - 12.2 - - - - - - -
20/04:00am 29.5 WNW 4 7 1007.9 - 12.2 - - - - - - -
20/03:30am 29.4 NW 4 7 1007.8 - 12.2 - - - - - - -
20/03:00am 29.4 NW 3 7 1008.1 - 12.2 - - - - - - -
20/02:30am 29.3 NW 2 7 1008.0 - 12.2 - - - - - - -
20/02:00am 29.4 NW 4 10 1008.2 - 12.2 - - - - - - -
20/01:30am 29.1 NW 3 5 1008.1 - 12.2 - - - - - - -
20/01:00am 29.0 NNW 3 5 1008.7 - 12.2 - - - - - - -
20/12:30am 29.1 N 2 4 1009.9 - 12.2 - - - - - - -
20/12:00am 29.6 NW 2 5 1009.9 - 12.2 - - - - - - -
 
Date/Time
CST
Temp

°C
Wind Pressure Rain
since 9am
mm
Weather Cloud Vis
km
Sea
Height
m
Swell
Dir
 
Speed
knots
Gust
knots
hPa Trend Height
m
Period
s
Dir
19/11:30pm 29.7 WNW 3 6 1010.1 - 12.2 - - - - - - -
19/11:00pm 29.4 NW 2 5 1010.4 - 12.2 - - - - - - -
19/10:30pm 28.4 CALM 0 2 1010.1 - 12.2 - - - - - - -
19/10:00pm 28.1 N 1 3 1009.7 - 12.2 - - - - - - -
19/09:30pm 28.5 NNE 2 3 1009.2 - 12.2 - - - - - - -
19/09:00pm 29.1 NNW 2 5 1008.7 - 12.2 - - - - - - -
19/08:30pm 29.4 NNW 3 6 1008.2 - 12.2 - - - - - - -
19/08:00pm 30.1 NNW 4 8 1008.2 - 12.2 - - - - - - -
19/07:30pm 30.6 W 4 7 1008.0 - 12.2 - - - - - - -
19/07:00pm 30.6 W 3 7 1007.8 - 12.2 - - - - - - -
19/06:30pm 30.7 WNW 3 7 1007.0 - 12.2 - - - - - - -
19/06:00pm 31.0 WNW 2 4 1006.3 - 12.2 - - - - - - -
19/05:30pm 31.0 NW 4 7 1005.8 - 12.2 - - - - - - -
19/05:00pm 31.2 NW 3 5 1006.1 - 12.2 - - - - - - -
19/04:30pm 31.6 WNW 3 6 1006.2 - 12.2 - - - - - - -
19/04:00pm 32.6 WNW 4 8 1006.6 - 12.2 - - - - - - -
19/03:30pm 32.8 WNW 6 10 1006.6 - 12.2 - - - - - - -
19/03:00pm 32.8 WNW 6 11 1007.3 - 12.2 - - - - - - -
19/02:30pm 33.3 WNW 7 11 1007.6 - 12.2 - - - - - - -
19/02:00pm 33.2 W 5 11 1008.0 - 12.2 - - - - - - -
19/01:30pm 32.8 WNW 6 11 1008.6 - 12.2 - - - - - - -
19/01:00pm 33.2 W 5 9 1009.1 - 12.2 - - - - - - -
19/12:30pm 33.1 WNW 3 6 1009.4 - 12.2 - - - - - - -
19/12:00pm 32.0 WSW 1 3 1009.9 - 12.2 Recent precip. - - - - - -
19/11:30am 28.7 WNW 2 4 1010.4 - 12.0 - - - - - - -
19/11:00am 25.6 NNW 5 8 1011.1 - 8.6 - - - - - - -
19/10:51am 26.3 N 5 8 1011.0 - 3.8 - - - - - - -
19/10:30am 31.3 W 5 9 1010.5 - 0.0 - - - - - - -
19/10:00am 31.4 WNW 2 6 1010.8 - 0.0 - - - - - - -
19/09:30am 31.8 W 3 5 1010.8 - 0.0 - - - - - - -
19/09:00am 31.4 WNW 3 5 1010.7 - 0.0 - - - - - - -
19/08:30am 31.2 WNW 2 4 1010.5 - 0.0 - - - - - - -
19/08:00am 30.3 CALM 0 1 1010.3 - 0.0 - - - - - - -
19/07:30am 28.6 CALM 0 0 1009.9 - 0.0 - - - - - - -
19/07:00am 27.2 CALM 0 0 1009.8 - 0.0 - - - - - - -
19/06:30am 26.2 CALM 0 0 1009.3 - 0.0 - - - - - - -
19/06:00am 26.4 CALM 0 0 1008.9 - 0.0 - - - - - - -
19/05:30am 26.6 CALM 0 0 1008.8 - 0.0 - - - - - - -
19/05:00am 27.3 CALM 0 0 1008.5 - 0.0 - - - - - - -
19/04:30am 28.1 CALM 0 2 1008.3 - 0.0 - - - - - - -
19/04:00am 28.9 CALM 0 0 1008.3 - 0.0 - - - - - - -
19/03:30am 29.7 WNW 3 7 1008.3 - 0.0 - - - - - - -
19/03:00am 30.0 WNW 4 9 1008.4 - 0.0 - - - - - - -
19/02:30am 30.0 WNW 4 7 1008.7 - 0.0 - - - - - - -
19/02:00am 29.9 W 3 6 1008.8 - 0.0 - - - - - - -
19/01:30am 30.0 WNW 4 7 1008.8 - 0.0 - - - - - - -
19/01:00am 29.7 WNW 3 5 1008.6 - 0.0 - - - - - - -
19/12:30am 29.8 WNW 2 4 1008.9 - 0.0 - - - - - - -
19/12:00am 29.9 WNW 2 5 1009.1 - 0.0 - - - - - - -
 
Date/Time
CST
Temp

°C
Wind Pressure Rain
since 9am
mm
Weather Cloud Vis
km
Sea
Height
m
Swell
Dir
 
Speed
knots
Gust
knots
hPa Trend Height
m
Period
s
Dir
18/11:30pm 29.8 NW 2 5 1009.0 - 0.0 - - - - - - -
18/11:00pm 30.1 WNW 3 5 1009.2 - 0.0 - - - - - - -
18/10:30pm 30.0 WNW 2 6 1009.0 - 0.0 - - - - - - -
18/10:00pm 30.2 WNW 3 6 1008.8 - 0.0 - - - - - - -
18/09:30pm 30.2 WNW 4 7 1008.7 - 0.0 - - - - - - -
18/09:00pm 30.1 WNW 4 7 1008.2 - 0.0 - - - - - - -
18/08:30pm 30.2 WNW 3 9 1008.5 - 0.0 - - - - - - -
18/08:00pm 30.1 WNW 3 7 1008.1 - 0.0 - - - - - - -

Other Formats:

Comma delimited format used in spreadsheet applications
http://www.bom.gov.au/fwo/IDD60701/IDD60701.99501.axf

JavaScript Object Notation format (JSON) in row-major order
http://www.bom.gov.au/fwo/IDD60701/IDD60701.99501.json